Time;durP1;ratioP1;P1;durP2;ratioP2;P2;SDS_P1;SDS_P2;PMS_P1;PMS_P2;Temp;Humidity;BMP_temperature;BMP_pressure;BME280_temperature;BME280_humidity;BME280_pressure;Samples;Min_cycle;Max_cycle;Signal;HPM_P1;HPM_P2
2022/07/12 00:02:06;;;;;;;3.22;1.75;;;;;;;;;;6149509;23;20029;-47
2022/07/12 00:04:33;;;;;;;3.67;1.40;;;;;;;;;;6150070;23;20017;-48
2022/07/12 00:07:00;;;;;;;7.53;1.35;;;;;;;;;;6123887;23;20076;-47
2022/07/12 00:09:28;;;;;;;1.60;1.50;;;;;;;;;;6148625;23;20068;-46
2022/07/12 00:11:55;;;;;;;3.20;1.65;;;;;;;;;;6149859;23;20076;-48
2022/07/12 00:14:22;;;;;;;5.97;1.38;;;;;;;;;;6149519;23;20026;-48
2022/07/12 00:16:49;;;;;;;2.28;0.90;;;;;;;;;;6150378;23;20402;-60
2022/07/12 00:19:17;;;;;;;3.22;1.63;;;;;;;;;;6148629;23;20028;-60
2022/07/12 00:21:45;;;;;;;4.65;1.55;;;;;;;;;;6151015;23;20017;-60
2022/07/12 00:24:12;;;;;;;2.30;1.67;;;;;;;;;;6150397;23;20418;-60
2022/07/12 00:26:39;;;;;;;3.50;1.40;;;;;;;;;;6150625;23;20057;-60
2022/07/12 00:29:07;;;;;;;2.85;1.10;;;;;;;;;;6149469;23;20072;-60
2022/07/12 00:31:34;;;;;;;4.68;1.55;;;;;;;;;;6149698;23;20337;-61
2022/07/12 00:34:01;;;;;;;7.38;1.63;;;;;;;;;;6150103;23;20033;-60
2022/07/12 00:36:29;;;;;;;5.10;1.70;;;;;;;;;;6148983;23;20061;-48
2022/07/12 00:38:56;;;;;;;7.82;1.83;;;;;;;;;;6149621;23;20032;-60
2022/07/12 00:41:23;;;;;;;4.90;1.42;;;;;;;;;;6149971;23;20653;-60
2022/07/12 00:43:52;;;;;;;3.28;1.27;;;;;;;;;;6150471;23;20022;-60
2022/07/12 00:46:22;;;;;;;4.63;1.23;;;;;;;;;;6123760;23;20088;-60
2022/07/12 00:48:49;;;;;;;1.80;1.30;;;;;;;;;;6149163;23;20021;-60
2022/07/12 00:51:18;;;;;;;6.10;1.40;;;;;;;;;;6148554;23;20032;-60
2022/07/12 00:53:46;;;;;;;2.72;1.35;;;;;;;;;;6148982;23;20450;-54
2022/07/12 00:56:14;;;;;;;7.35;1.63;;;;;;;;;;6148819;23;20025;-60
2022/07/12 00:58:42;;;;;;;4.10;1.75;;;;;;;;;;6150241;23;20026;-50
2022/07/12 01:01:09;;;;;;;2.65;1.50;;;;;;;;;;6150080;23;20026;-55
2022/07/12 01:03:37;;;;;;;;;;;;;;;;;;6151363;23;20022;-55
2022/07/12 01:06:05;;;;;;;6.50;1.42;;;;;;;;;;6147920;23;20388;-56
2022/07/12 01:08:32;;;;;;;4.88;1.63;;;;;;;;;;6149894;23;20731;-55
2022/07/12 01:11:00;;;;;;;2.80;1.58;;;;;;;;;;6149767;23;20026;-51
2022/07/12 01:13:27;;;;;;;4.80;1.70;;;;;;;;;;6152083;23;20025;-51
2022/07/12 01:15:55;;;;;;;6.55;1.60;;;;;;;;;;6151156;23;20021;-58
2022/07/12 01:18:22;;;;;;;5.43;1.88;;;;;;;;;;6151695;23;20034;-59
2022/07/12 01:20:50;;;;;;;6.00;2.20;;;;;;;;;;6151625;23;20072;-58
2022/07/12 01:23:17;;;;;;;4.05;1.73;;;;;;;;;;6152112;23;20060;-58
2022/07/12 01:25:44;;;;;;;4.53;1.77;;;;;;;;;;6152189;23;20022;-58
2022/07/12 01:28:12;;;;;;;6.82;1.83;;;;;;;;;;6125508;23;20068;-58
2022/07/12 01:30:41;;;;;;;7.50;2.00;;;;;;;;;;6151403;23;20026;-58
2022/07/12 01:33:08;;;;;;;4.75;1.80;;;;;;;;;;6151220;23;20026;-59
2022/07/12 01:35:36;;;;;;;7.70;2.50;;;;;;;;;;6151136;23;20029;-68
2022/07/12 01:38:03;;;;;;;2.53;1.60;;;;;;;;;;6151288;23;20467;-68
2022/07/12 01:40:30;;;;;;;4.10;1.80;;;;;;;;;;6150124;23;20056;-68
2022/07/12 01:42:58;;;;;;;6.90;2.03;;;;;;;;;;6151142;23;20026;-68
2022/07/12 01:45:25;;;;;;;5.35;1.80;;;;;;;;;;6150691;23;20030;-68
2022/07/12 01:47:52;;;;;;;5.00;1.70;;;;;;;;;;6151092;23;20332;-68
2022/07/12 01:50:20;;;;;;;4.00;1.45;;;;;;;;;;6150115;23;20025;-69
2022/07/12 01:52:47;;;;;;;3.85;1.70;;;;;;;;;;6151670;23;20545;-48
2022/07/12 01:55:15;;;;;;;3.63;1.60;;;;;;;;;;6123818;23;20029;-59
2022/07/12 01:57:45;;;;;;;7.70;2.03;;;;;;;;;;6149641;23;20171;-59
2022/07/12 02:00:13;;;;;;;4.43;1.83;;;;;;;;;;6149905;23;20111;-59
2022/07/12 02:02:40;;;;;;;3.25;1.38;;;;;;;;;;6150503;23;20100;-59
2022/07/12 02:05:07;;;;;;;6.03;1.83;;;;;;;;;;6150816;23;20093;-59
2022/07/12 02:07:35;;;;;;;6.22;2.20;;;;;;;;;;6151375;23;20021;-58
2022/07/12 02:10:04;;;;;;;5.80;2.13;;;;;;;;;;6151106;23;20100;-69
2022/07/12 02:12:31;;;;;;;4.47;1.95;;;;;;;;;;6150861;23;20025;-51
2022/07/12 02:14:58;;;;;;;3.58;1.67;;;;;;;;;;6151203;23;20036;-46
2022/07/12 02:17:25;;;;;;;9.05;2.25;;;;;;;;;;6150929;23;20096;-44
2022/07/12 02:19:53;;;;;;;3.97;2.17;;;;;;;;;;6151054;23;20033;-46
2022/07/12 02:22:20;;;;;;;6.50;1.80;;;;;;;;;;6150441;23;20049;-48
2022/07/12 02:24:47;;;;;;;3.67;1.88;;;;;;;;;;6151007;23;20476;-46
2022/07/12 02:27:15;;;;;;;4.30;1.77;;;;;;;;;;6151249;23;20022;-48
2022/07/12 02:29:42;;;;;;;5.13;1.90;;;;;;;;;;6151800;23;20033;-58
2022/07/12 02:32:09;;;;;;;4.68;1.88;;;;;;;;;;6151117;23;20021;-58
2022/07/12 02:34:37;;;;;;;5.38;1.70;;;;;;;;;;6151736;23;20064;-58
2022/07/12 02:37:04;;;;;;;6.40;2.17;;;;;;;;;;6150230;23;20022;-59
2022/07/12 02:39:31;;;;;;;11.27;2.50;;;;;;;;;;6151380;23;20029;-58
2022/07/12 02:41:59;;;;;;;6.95;1.50;;;;;;;;;;6151503;23;20022;-59
2022/07/12 02:44:26;;;;;;;3.25;1.50;;;;;;;;;;6149685;23;20092;-58
2022/07/12 02:46:53;;;;;;;4.20;1.73;;;;;;;;;;6151427;23;20472;-58
2022/07/12 02:49:21;;;;;;;5.18;1.95;;;;;;;;;;6151169;23;20017;-60
2022/07/12 02:51:48;;;;;;;4.15;2.05;;;;;;;;;;6151488;23;20087;-51
2022/07/12 02:54:15;;;;;;;4.80;1.73;;;;;;;;;;6151089;23;20487;-50
2022/07/12 02:56:42;;;;;;;4.68;1.90;;;;;;;;;;6151250;23;20026;-52
2022/07/12 02:59:10;;;;;;;2.28;1.70;;;;;;;;;;6150705;23;20065;-45
2022/07/12 03:01:37;;;;;;;8.43;2.00;;;;;;;;;;6150652;23;20021;-45
2022/07/12 03:04:04;;;;;;;1.92;1.30;;;;;;;;;;6151301;23;20028;-47
2022/07/12 03:06:32;;;;;;;5.93;1.90;;;;;;;;;;6125121;23;20030;-48
2022/07/12 03:08:59;;;;;;;4.35;1.70;;;;;;;;;;6151677;23;20029;-59
2022/07/12 03:11:26;;;;;;;2.88;1.88;;;;;;;;;;6149501;23;20053;-53
2022/07/12 03:13:53;;;;;;;3.47;1.75;;;;;;;;;;6150724;23;20029;-54
2022/07/12 03:16:21;;;;;;;6.45;1.50;;;;;;;;;;6150303;23;20517;-55
2022/07/12 03:18:48;;;;;;;3.50;1.90;;;;;;;;;;6151237;23;20029;-53
2022/07/12 03:21:16;;;;;;;5.10;1.90;;;;;;;;;;6149752;23;20348;-55
2022/07/12 03:23:44;;;;;;;3.35;1.35;;;;;;;;;;6151046;23;20056;-55
2022/07/12 03:26:11;;;;;;;;;;;;;;;;;;6151460;23;20025;-53
2022/07/12 03:28:38;;;;;;;5.05;1.50;;;;;;;;;;6151085;23;19921;-47
2022/07/12 03:31:05;;;;;;;4.45;1.70;;;;;;;;;;6149058;23;20028;-68
2022/07/12 03:33:33;;;;;;;2.83;1.73;;;;;;;;;;6150346;23;20029;-67
2022/07/12 03:36:00;;;;;;;;;;;;;;;;;;6149854;23;20032;-67
2022/07/12 03:38:28;;;;;;;3.10;1.45;;;;;;;;;;6151136;23;19963;-68
2022/07/12 03:40:55;;;;;;;4.30;1.90;;;;;;;;;;6148987;23;20392;-67
2022/07/12 03:43:22;;;;;;;3.88;1.67;;;;;;;;;;6150470;23;20092;-67
2022/07/12 03:45:51;;;;;;;3.95;1.58;;;;;;;;;;6149043;23;20029;-49
2022/07/12 03:48:19;;;;;;;2.80;1.45;;;;;;;;;;6150223;23;20497;-59
2022/07/12 03:50:46;;;;;;;6.78;1.73;;;;;;;;;;6149463;23;20030;-58
2022/07/12 03:53:13;;;;;;;4.95;1.83;;;;;;;;;;6149227;23;20227;-58
2022/07/12 03:55:41;;;;;;;;;;;;;;;;;;6150665;23;20049;-59
2022/07/12 03:58:08;;;;;;;3.25;1.63;;;;;;;;;;6149738;23;19967;-59
2022/07/12 04:00:35;;;;;;;4.43;1.67;;;;;;;;;;6149332;23;20494;-59
2022/07/12 04:03:02;;;;;;;3.78;1.77;;;;;;;;;;6150708;23;20025;-59
2022/07/12 04:05:29;;;;;;;5.55;1.40;;;;;;;;;;6149766;23;20628;-48
2022/07/12 04:07:57;;;;;;;3.25;1.40;;;;;;;;;;6148577;23;20022;-60
2022/07/12 04:10:24;;;;;;;3.45;1.38;;;;;;;;;;6149812;23;20420;-60
2022/07/12 04:12:51;;;;;;;3.70;1.15;;;;;;;;;;6150767;23;20021;-60
2022/07/12 04:15:20;;;;;;;2.83;1.30;;;;;;;;;;6149857;23;20021;-61
2022/07/12 04:17:47;;;;;;;3.72;1.00;;;;;;;;;;6151298;23;20025;-60
2022/07/12 04:20:14;;;;;;;2.05;1.05;;;;;;;;;;6148485;23;20398;-60
2022/07/12 04:22:42;;;;;;;2.58;0.98;;;;;;;;;;6150823;23;20026;-61
2022/07/12 04:25:09;;;;;;;;;;;;;;;;;;6149114;23;20558;-61
2022/07/12 04:27:36;;;;;;;1.92;1.05;;;;;;;;;;6150470;23;20174;-59
2022/07/12 04:30:04;;;;;;;5.03;1.20;;;;;;;;;;6149337;23;20033;-59
2022/07/12 04:32:32;;;;;;;1.95;0.93;;;;;;;;;;6150483;23;20025;-59
2022/07/12 04:34:59;;;;;;;2.33;0.90;;;;;;;;;;6149015;23;20021;-58
2022/07/12 04:37:26;;;;;;;2.92;1.30;;;;;;;;;;6149493;23;20033;-59
2022/07/12 04:39:53;;;;;;;3.28;0.98;;;;;;;;;;6149894;23;20355;-60
2022/07/12 04:42:21;;;;;;;3.83;1.27;;;;;;;;;;6149450;23;20356;-61
2022/07/12 04:44:48;;;;;;;2.90;1.17;;;;;;;;;;6123302;23;20030;-59
2022/07/12 04:47:15;;;;;;;3.70;1.38;;;;;;;;;;6152335;23;20029;-50
2022/07/12 04:49:42;;;;;;;2.42;1.27;;;;;;;;;;6153226;23;20029;-49
2022/07/12 04:52:10;;;;;;;3.58;1.52;;;;;;;;;;6151265;23;20340;-51
2022/07/12 04:54:37;;;;;;;;;;;;;;;;;;6152264;23;20072;-47
2022/07/12 04:57:04;;;;;;;3.78;1.30;;;;;;;;;;6152043;23;19920;-50
2022/07/12 04:59:31;;;;;;;3.78;1.08;;;;;;;;;;6151900;23;20054;-51
2022/07/12 05:01:59;;;;;;;1.45;0.85;;;;;;;;;;6149782;23;20029;-49
2022/07/12 05:04:26;;;;;;;3.88;1.27;;;;;;;;;;6150893;23;20036;-46
2022/07/12 05:06:53;;;;;;;3.30;1.30;;;;;;;;;;6148923;23;20032;-56
2022/07/12 05:09:21;;;;;;;3.17;1.35;;;;;;;;;;6152297;23;20025;-53
2022/07/12 05:11:48;;;;;;;2.53;1.05;;;;;;;;;;6150728;23;20541;-55
2022/07/12 05:14:15;;;;;;;1.98;1.17;;;;;;;;;;6151638;23;20479;-56
2022/07/12 05:16:42;;;;;;;3.50;1.30;;;;;;;;;;6151273;23;20076;-56
2022/07/12 05:19:10;;;;;;;3.53;1.40;;;;;;;;;;6150268;23;20092;-54
2022/07/12 05:21:37;;;;;;;5.85;1.35;;;;;;;;;;6150047;23;20026;-64
2022/07/12 05:24:05;;;;;;;3.03;1.50;;;;;;;;;;6151797;23;20022;-69
2022/07/12 05:26:32;;;;;;;4.20;1.30;;;;;;;;;;6151494;23;20029;-68
2022/07/12 05:28:59;;;;;;;3.97;1.63;;;;;;;;;;6151425;23;20325;-68
2022/07/12 05:31:26;;;;;;;1.92;1.05;;;;;;;;;;6150556;23;20467;-69
2022/07/12 05:33:54;;;;;;;2.42;1.20;;;;;;;;;;6151711;23;20043;-68
2022/07/12 05:36:21;;;;;;;4.63;1.90;;;;;;;;;;6150600;23;20025;-68
2022/07/12 05:38:49;;;;;;;6.57;1.42;;;;;;;;;;6151017;23;20025;-67
2022/07/12 05:41:16;;;;;;;3.35;1.33;;;;;;;;;;6150877;23;20021;-51
2022/07/12 05:43:43;;;;;;;4.18;1.67;;;;;;;;;;6152102;23;20029;-58
2022/07/12 05:46:11;;;;;;;4.07;1.60;;;;;;;;;;6151951;23;20021;-58
2022/07/12 05:48:41;;;;;;;8.02;1.70;;;;;;;;;;6151583;23;20022;-58
2022/07/12 05:53:54;;;;;;;7.28;1.80;;;;;;;;;;6151834;23;20026;-58
2022/07/12 05:56:22;;;;;;;6.05;3.15;;;;;;;;;;6150580;23;20034;-58
2022/07/12 05:58:50;;;;;;;8.02;2.22;;;;;;;;;;6150819;23;20072;-61
2022/07/12 06:01:18;;;;;;;9.77;2.22;;;;;;;;;;6150957;23;20088;-51
2022/07/12 06:03:45;;;;;;;6.40;1.98;;;;;;;;;;6151520;23;20092;-49
2022/07/12 06:06:12;;;;;;;6.57;2.25;;;;;;;;;;6150202;23;20025;-50
2022/07/12 06:08:40;;;;;;;7.03;2.45;;;;;;;;;;6151095;23;20032;-49
2022/07/12 06:11:07;;;;;;;4.57;1.73;;;;;;;;;;6149886;23;20025;-50
2022/07/12 06:13:34;;;;;;;5.43;2.00;;;;;;;;;;6150112;23;20056;-46
2022/07/12 06:16:05;;;;;;;5.10;1.70;;;;;;;;;;6149706;23;20124;-48
2022/07/12 06:18:35;;;;;;;4.85;1.65;;;;;;;;;;6151808;23;20026;-58
2022/07/12 06:21:02;;;;;;;4.90;1.80;;;;;;;;;;6151494;23;20029;-46
2022/07/12 06:23:30;;;;;;;6.40;1.98;;;;;;;;;;6151302;23;20076;-47
2022/07/12 06:25:57;;;;;;;5.20;1.92;;;;;;;;;;6147076;23;20029;-49
2022/07/12 06:28:24;;;;;;;5.68;1.90;;;;;;;;;;6148341;23;20069;-47
2022/07/12 06:30:52;;;;;;;5.60;2.03;;;;;;;;;;6148659;23;20360;-49
2022/07/12 06:33:19;;;;;;;7.03;2.00;;;;;;;;;;6149969;23;20032;-49
2022/07/12 06:35:46;;;;;;;7.63;2.50;;;;;;;;;;6149777;23;20104;-50
2022/07/12 06:38:13;;;;;;;5.60;2.88;;;;;;;;;;6150192;23;20026;-59
2022/07/12 06:40:41;;;;;;;6.53;3.15;;;;;;;;;;6150320;23;20029;-48
2022/07/12 06:43:12;;;;;;;7.43;3.88;;;;;;;;;;6149815;23;20387;-48
2022/07/12 06:45:40;;;;;;;6.80;3.85;;;;;;;;;;6149873;23;20054;-50
2022/07/12 06:48:07;;;;;;;9.13;4.88;;;;;;;;;;6150434;23;20403;-51
2022/07/12 06:50:35;;;;;;;13.90;4.70;;;;;;;;;;6149909;23;20025;-48
2022/07/12 06:53:02;;;;;;;7.78;3.97;;;;;;;;;;6151018;23;20029;-49
2022/07/12 06:55:30;;;;;;;13.90;4.90;;;;;;;;;;6149608;23;20487;-62
2022/07/12 06:58:01;;;;;;;10.32;4.78;;;;;;;;;;6124627;23;20106;-68
2022/07/12 07:00:29;;;;;;;7.95;4.43;;;;;;;;;;6148850;23;20029;-58
2022/07/12 07:03:00;;;;;;;10.38;4.18;;;;;;;;;;6149281;23;20088;-59
2022/07/12 07:05:27;;;;;;;;;;;;;;;;;;6151594;23;20029;-60
2022/07/12 07:07:56;;;;;;;11.93;3.88;;;;;;;;;;6125990;23;19935;-59
2022/07/12 07:10:23;;;;;;;12.35;3.55;;;;;;;;;;6150082;23;20879;-59
2022/07/12 07:12:50;;;;;;;12.90;3.78;;;;;;;;;;6150122;23;20137;-59
2022/07/12 07:15:18;;;;;;;8.88;3.80;;;;;;;;;;6149563;23;20029;-50
2022/07/12 07:17:46;;;;;;;11.48;3.97;;;;;;;;;;6150434;23;20471;-67
2022/07/12 07:20:13;;;;;;;9.70;3.58;;;;;;;;;;6149427;23;20421;-58
2022/07/12 07:22:41;;;;;;;12.55;4.00;;;;;;;;;;6147453;23;20022;-59
2022/07/12 07:25:08;;;;;;;;;;;;;;;;;;6148042;23;20036;-58
2022/07/12 07:27:35;;;;;;;9.63;3.78;;;;;;;;;;6149370;23;19991;-58
2022/07/12 07:32:49;;;;;;;12.32;2.65;;;;;;;;;;6150494;23;20104;-58
2022/07/12 07:35:22;;;;;;;10.18;3.30;;;;;;;;;;6147419;23;20455;-59
2022/07/12 07:37:49;;;;;;;6.95;2.92;;;;;;;;;;6149063;23;20030;-64
2022/07/12 07:40:16;;;;;;;9.85;2.67;;;;;;;;;;6149890;23;20025;-64
2022/07/12 07:42:44;;;;;;;8.82;2.63;;;;;;;;;;6150675;23;20025;-64
2022/07/12 07:45:11;;;;;;;8.52;2.60;;;;;;;;;;6150700;23;20025;-63
2022/07/12 07:47:48;;;;;;;13.63;3.05;;;;;;;;;;6150888;23;20021;-64
2022/07/12 07:50:35;;;;;;;8.32;2.75;;;;;;;;;;6149848;23;20136;-64
2022/07/12 07:53:04;;;;;;;10.40;3.30;;;;;;;;;;6149937;23;20032;-57
2022/07/12 07:55:31;;;;;;;6.28;2.53;;;;;;;;;;6148456;23;20032;-64
2022/07/12 07:58:00;;;;;;;8.63;2.97;;;;;;;;;;6147604;23;20076;-58
2022/07/12 08:00:28;;;;;;;8.55;2.80;;;;;;;;;;6122365;23;20333;-58
2022/07/12 08:03:01;;;;;;;7.22;2.40;;;;;;;;;;6149531;23;20184;-59
2022/07/12 08:05:30;;;;;;;10.07;2.60;;;;;;;;;;6149197;23;20112;-58
2022/07/12 08:07:58;;;;;;;11.48;2.53;;;;;;;;;;6147719;23;20404;-58
2022/07/12 08:10:26;;;;;;;11.63;3.10;;;;;;;;;;6149172;23;20033;-58
2022/07/12 08:12:53;;;;;;;11.57;2.97;;;;;;;;;;6149689;23;20546;-58
2022/07/12 08:15:20;;;;;;;8.13;2.58;;;;;;;;;;6149856;23;20029;-59
2022/07/12 08:17:47;;;;;;;5.75;2.50;;;;;;;;;;6148187;23;20029;-59
2022/07/12 08:20:21;;;;;;;8.13;2.63;;;;;;;;;;6138781;23;20117;-60
2022/07/12 08:23:08;;;;;;;7.60;2.40;;;;;;;;;;6148564;23;20480;-59
2022/07/12 08:25:36;;;;;;;8.32;2.42;;;;;;;;;;6148982;23;20033;-59
2022/07/12 08:28:03;;;;;;;9.70;2.80;;;;;;;;;;6148624;23;20029;-59
2022/07/12 08:30:30;;;;;;;8.73;2.50;;;;;;;;;;6149054;23;20033;-48
2022/07/12 08:32:58;;;;;;;8.82;2.50;;;;;;;;;;6149822;23;20616;-59
2022/07/12 08:35:25;;;;;;;8.73;2.67;;;;;;;;;;6149134;23;20034;-58
2022/07/12 08:37:52;;;;;;;9.07;2.40;;;;;;;;;;6142172;23;20076;-59
2022/07/12 08:40:21;;;;;;;10.95;2.97;;;;;;;;;;6149223;23;20105;-58
2022/07/12 08:42:48;;;;;;;6.55;2.53;;;;;;;;;;6148688;23;20025;-59
2022/07/12 08:45:16;;;;;;;10.05;2.95;;;;;;;;;;6149612;23;20033;-59
2022/07/12 08:47:43;;;;;;;10.45;2.88;;;;;;;;;;6148014;23;20017;-58
2022/07/12 08:50:17;;;;;;;8.23;2.60;;;;;;;;;;6148038;23;20033;-58
2022/07/12 08:52:45;;;;;;;7.07;2.50;;;;;;;;;;6149288;23;20455;-65
2022/07/12 08:55:28;;;;;;;6.35;2.28;;;;;;;;;;6148913;23;20026;-65
2022/07/12 08:57:58;;;;;;;8.20;2.78;;;;;;;;;;6148895;23;20021;-65
2022/07/12 09:00:26;;;;;;;6.85;2.45;;;;;;;;;;6150136;23;20057;-65
2022/07/12 09:02:55;;;;;;;9.20;2.47;;;;;;;;;;6147941;23;20064;-65
2022/07/12 09:05:27;;;;;;;8.05;2.60;;;;;;;;;;6146724;23;20304;-65
2022/07/12 09:08:03;;;;;;;11.65;2.70;;;;;;;;;;6123058;23;20021;-64
2022/07/12 09:10:31;;;;;;;6.72;2.40;;;;;;;;;;6148910;23;20029;-50
2022/07/12 09:12:59;;;;;;;14.43;2.97;;;;;;;;;;6149838;23;20017;-64
2022/07/12 09:15:29;;;;;;;8.30;2.70;;;;;;;;;;6150002;23;20419;-65
2022/07/12 09:17:58;;;;;;;10.38;2.83;;;;;;;;;;6149637;23;20097;-64
2022/07/12 09:20:26;;;;;;;8.90;2.50;;;;;;;;;;6150286;23;20052;-65
2022/07/12 09:22:54;;;;;;;5.28;1.90;;;;;;;;;;6150013;23;20028;-64
2022/07/12 09:25:22;;;;;;;5.40;2.40;;;;;;;;;;6149018;23;20021;-65
2022/07/12 09:27:57;;;;;;;5.10;2.20;;;;;;;;;;6148652;23;20084;-64
2022/07/12 09:30:25;;;;;;;7.30;2.33;;;;;;;;;;6149884;23;20025;-58
2022/07/12 09:36:13;;;;;;;6.00;2.00;;;;;;;;;;6151028;23;20368;-57
2022/07/12 09:38:49;;;;;;;7.95;2.28;;;;;;;;;;6151513;23;20034;-59
2022/07/12 09:41:20;;;;;;;6.28;2.42;;;;;;;;;;6123766;23;20060;-59
2022/07/12 09:43:48;;;;;;;9.07;1.92;;;;;;;;;;6149906;23;20557;-59
2022/07/12 09:46:16;;;;;;;4.47;1.80;;;;;;;;;;6149103;23;20372;-58
2022/07/12 09:48:47;;;;;;;8.40;2.47;;;;;;;;;;6151671;23;20033;-59
2022/07/12 09:51:17;;;;;;;5.43;2.10;;;;;;;;;;6150097;23;20072;-65
2022/07/12 09:53:45;;;;;;;6.97;2.55;;;;;;;;;;6150179;23;20025;-64
2022/07/12 09:56:13;;;;;;;8.68;2.65;;;;;;;;;;6149386;23;20029;-64
2022/07/12 09:58:44;;;;;;;4.75;1.92;;;;;;;;;;6151278;23;20057;-64
2022/07/12 10:01:11;;;;;;;8.60;2.30;;;;;;;;;;6149999;23;20476;-64
2022/07/12 10:03:43;;;;;;;10.48;2.28;;;;;;;;;;6151400;23;20072;-64
2022/07/12 10:06:12;;;;;;;6.80;2.20;;;;;;;;;;6150112;23;20057;-51
2022/07/12 10:08:40;;;;;;;5.43;2.00;;;;;;;;;;6150852;23;20021;-64
2022/07/12 10:11:08;;;;;;;6.65;2.05;;;;;;;;;;6149209;23;20029;-64
2022/07/12 10:13:35;;;;;;;5.03;1.80;;;;;;;;;;6149657;23;20029;-64
2022/07/12 10:16:03;;;;;;;5.45;2.10;;;;;;;;;;6149945;23;20025;-64
2022/07/12 10:18:31;;;;;;;5.35;2.13;;;;;;;;;;6150947;23;20463;-64
2022/07/12 10:20:58;;;;;;;4.82;1.98;;;;;;;;;;6151236;23;20026;-64
2022/07/12 10:23:34;;;;;;;6.47;2.40;;;;;;;;;;6148701;23;20084;-64
2022/07/12 10:26:02;;;;;;;10.68;2.33;;;;;;;;;;6150155;23;20037;-64
2022/07/12 10:28:48;;;;;;;6.35;2.05;;;;;;;;;;6151081;23;20321;-60
2022/07/12 10:31:17;;;;;;;8.43;2.13;;;;;;;;;;6149044;23;20040;-60
2022/07/12 10:33:44;;;;;;;6.03;2.33;;;;;;;;;;6149205;23;20024;-60
2022/07/12 10:36:11;;;;;;;5.85;2.30;;;;;;;;;;6149135;23;20025;-60
2022/07/12 10:38:41;;;;;;;7.03;2.20;;;;;;;;;;6150263;23;20100;-61
2022/07/12 10:41:08;;;;;;;;;;;;;;;;;;6150076;23;20482;-60
2022/07/12 10:46:23;;;;;;;5.47;2.00;;;;;;;;;;6149871;23;20081;-64
2022/07/12 10:48:51;;;;;;;8.90;2.70;;;;;;;;;;6150674;23;20029;-63
2022/07/12 10:51:22;;;;;;;5.93;2.20;;;;;;;;;;6149740;23;20367;-64
2022/07/12 10:53:50;;;;;;;4.70;2.30;;;;;;;;;;6150865;23;20029;-63
2022/07/12 10:56:19;;;;;;;6.53;2.00;;;;;;;;;;6150611;23;20256;-63
2022/07/12 10:58:56;;;;;;;7.25;2.38;;;;;;;;;;6149972;23;20021;-63
2022/07/12 11:01:25;;;;;;;6.57;2.33;;;;;;;;;;6149331;23;20021;-63
2022/07/12 11:03:53;;;;;;;5.60;1.98;;;;;;;;;;6150327;23;20029;-64
2022/07/12 11:06:28;;;;;;;8.10;2.50;;;;;;;;;;6149905;23;20025;-51
2022/07/12 11:09:01;;;;;;;7.95;2.28;;;;;;;;;;6150131;23;20021;-59
2022/07/12 11:11:29;;;;;;;5.80;2.35;;;;;;;;;;6150309;23;20064;-60
2022/07/12 11:13:58;;;;;;;6.63;2.30;;;;;;;;;;6150970;23;20029;-60
2022/07/12 11:16:25;;;;;;;6.50;2.60;;;;;;;;;;6148072;23;20061;-60
2022/07/12 11:18:53;;;;;;;8.63;2.22;;;;;;;;;;6149306;23;20030;-60
2022/07/12 11:21:21;;;;;;;8.88;2.90;;;;;;;;;;6149014;23;20087;-60
2022/07/12 11:23:49;;;;;;;7.75;2.30;;;;;;;;;;6150728;23;20025;-62
2022/07/12 11:26:16;;;;;;;;;;;;;;;;;;6150841;23;20026;-59
2022/07/12 11:28:44;;;;;;;6.90;2.50;;;;;;;;;;6149524;23;20405;-59
2022/07/12 11:31:13;;;;;;;5.18;2.10;;;;;;;;;;6149317;23;20026;-59
2022/07/12 11:33:41;;;;;;;9.57;2.22;;;;;;;;;;6149306;23;20468;-58
2022/07/12 11:36:10;;;;;;;6.00;1.98;;;;;;;;;;6148345;23;20068;-59
2022/07/12 11:38:38;;;;;;;4.47;1.80;;;;;;;;;;6148510;23;20021;-59
2022/07/12 11:41:11;;;;;;;7.78;2.33;;;;;;;;;;6149608;23;20416;-59
2022/07/12 11:43:39;;;;;;;5.95;2.13;;;;;;;;;;6149420;23;20526;-64
2022/07/12 11:46:06;;;;;;;4.55;2.25;;;;;;;;;;6149228;23;20025;-64
2022/07/12 11:48:35;;;;;;;7.13;1.98;;;;;;;;;;6150243;23;20018;-64
2022/07/12 11:51:05;;;;;;;8.63;1.83;;;;;;;;;;6149685;23;20274;-63
2022/07/12 11:53:33;;;;;;;7.28;2.35;;;;;;;;;;6149150;23;20669;-64
2022/07/12 11:56:01;;;;;;;6.82;1.70;;;;;;;;;;6149183;23;20022;-64
2022/07/12 11:58:28;;;;;;;6.50;2.08;;;;;;;;;;6149347;23;20026;-64
2022/07/12 12:00:56;;;;;;;12.48;2.20;;;;;;;;;;6148195;23;20021;-64
2022/07/12 12:03:24;;;;;;;6.47;1.98;;;;;;;;;;6148923;23;20030;-60
2022/07/12 12:05:53;;;;;;;4.70;1.75;;;;;;;;;;6147633;23;20087;-50
2022/07/12 12:08:20;;;;;;;6.90;1.70;;;;;;;;;;6147435;23;20096;-51
2022/07/12 12:10:55;;;;;;;5.97;1.95;;;;;;;;;;6150093;23;20395;-51
2022/07/12 12:13:23;;;;;;;5.93;1.90;;;;;;;;;;6148329;23;20048;-49
2022/07/12 12:15:51;;;;;;;;;;;;;;;;;;6150736;23;20029;-46
2022/07/12 12:18:27;;;;;;;5.97;1.80;;;;;;;;;;6148461;23;20306;-52
2022/07/12 12:21:21;;;;;;;7.07;2.10;;;;;;;;;;6148423;23;20029;-59
2022/07/12 12:24:08;;;;;;;7.50;2.33;;;;;;;;;;6143654;23;20252;-62
2022/07/12 12:26:35;;;;;;;5.28;1.65;;;;;;;;;;6149418;23;20103;-62
2022/07/12 12:29:03;;;;;;;6.85;1.80;;;;;;;;;;6149407;23;20029;-62
2022/07/12 12:31:30;;;;;;;8.68;2.42;;;;;;;;;;6148216;23;20039;-62
2022/07/12 12:33:58;;;;;;;6.43;2.45;;;;;;;;;;6148745;23;20028;-63
2022/07/12 12:36:26;;;;;;;5.82;2.25;;;;;;;;;;6148593;23;20631;-63
2022/07/12 12:38:56;;;;;;;8.35;2.50;;;;;;;;;;6150125;23;20545;-51
2022/07/12 12:41:25;;;;;;;4.65;2.03;;;;;;;;;;6148036;23;20112;-63
2022/07/12 12:43:59;;;;;;;4.88;1.73;;;;;;;;;;6149447;23;20051;-58
2022/07/12 12:46:45;;;;;;;4.88;1.90;;;;;;;;;;6149572;23;20022;-59
2022/07/12 12:49:13;;;;;;;5.43;1.85;;;;;;;;;;6149589;23;20033;-59
2022/07/12 12:51:52;;;;;;;4.85;1.60;;;;;;;;;;6122971;23;20080;-59
2022/07/12 12:54:40;;;;;;;4.35;1.35;;;;;;;;;;6149346;23;20025;-58
2022/07/12 12:57:08;;;;;;;3.13;1.20;;;;;;;;;;6148359;23;20029;-59
2022/07/12 12:59:35;;;;;;;8.02;1.92;;;;;;;;;;6150117;23;20241;-63
2022/07/12 13:02:04;;;;;;;4.95;1.60;;;;;;;;;;6147272;23;20093;-62
2022/07/12 13:04:33;;;;;;;4.13;1.58;;;;;;;;;;6147770;23;20088;-62
2022/07/12 13:07:00;;;;;;;2.55;1.48;;;;;;;;;;6149029;23;20036;-62
2022/07/12 13:09:35;;;;;;;4.00;1.42;;;;;;;;;;6150296;23;20018;-62
2022/07/12 13:12:02;;;;;;;;;;;;;;;;;;6151258;23;20494;-62
2022/07/12 13:14:30;;;;;;;2.03;0.90;;;;;;;;;;6151245;23;19920;-60
2022/07/12 13:16:57;;;;;;;3.03;1.30;;;;;;;;;;6150107;23;20080;-49
2022/07/12 13:19:26;;;;;;;1.83;0.98;;;;;;;;;;6150564;23;20658;-53
2022/07/12 13:21:53;;;;;;;2.70;1.00;;;;;;;;;;6151043;23;20026;-58
2022/07/12 13:24:20;;;;;;;2.20;0.93;;;;;;;;;;6150536;23;20049;-58
2022/07/12 13:26:48;;;;;;;;;;;;;;;;;;6151677;23;20030;-58
2022/07/12 13:29:15;;;;;;;3.10;0.90;;;;;;;;;;6149844;23;19975;-58
2022/07/12 13:31:42;;;;;;;2.97;0.90;;;;;;;;;;6150122;23;20025;-58
2022/07/12 13:34:09;;;;;;;3.72;1.15;;;;;;;;;;6151080;23;20091;-58
2022/07/12 13:36:37;;;;;;;4.40;1.10;;;;;;;;;;6150902;23;20021;-61
2022/07/12 13:41:50;;;;;;;2.53;1.02;;;;;;;;;;6147511;23;20025;-59
2022/07/12 13:44:17;;;;;;;2.75;1.13;;;;;;;;;;6150601;23;20092;-59
2022/07/12 13:46:49;;;;;;;2.47;0.90;;;;;;;;;;6150220;23;20030;-59
2022/07/12 13:49:17;;;;;;;1.90;0.77;;;;;;;;;;6151195;23;20399;-59
2022/07/12 13:51:44;;;;;;;;;;;;;;;;;;6151216;23;20036;-59
2022/07/12 13:54:12;;;;;;;3.27;1.17;;;;;;;;;;6149804;23;19928;-59
2022/07/12 13:56:40;;;;;;;;;;;;;;;;;;6151422;23;20025;-63
2022/07/12 13:59:10;;;;;;;2.13;0.55;;;;;;;;;;6151193;23;19916;-62
2022/07/12 14:01:37;;;;;;;0.50;0.50;;;;;;;;;;6150875;23;20029;-63
2022/07/12 14:04:05;;;;;;;1.52;0.63;;;;;;;;;;6150045;23;20021;-63
2022/07/12 14:06:32;;;;;;;3.53;1.20;;;;;;;;;;6151685;23;20029;-62
2022/07/12 14:08:59;;;;;;;;;;;;;;;;;;6150549;23;20025;-63
2022/07/12 14:11:27;;;;;;;2.22;0.77;;;;;;;;;;6150380;23;20401;-63
2022/07/12 14:13:54;;;;;;;2.25;0.82;;;;;;;;;;6151062;23;20052;-51
2022/07/12 14:16:21;;;;;;;3.15;0.85;;;;;;;;;;6149920;23;20514;-48
2022/07/12 14:18:49;;;;;;;1.95;1.00;;;;;;;;;;6149485;23;20100;-57
2022/07/12 14:21:16;;;;;;;2.03;0.90;;;;;;;;;;6150502;23;20076;-59
2022/07/12 14:23:44;;;;;;;2.75;0.90;;;;;;;;;;6150767;23;20029;-60
2022/07/12 14:26:11;;;;;;;2.45;1.02;;;;;;;;;;6149662;23;20029;-60
2022/07/12 14:28:38;;;;;;;4.28;1.00;;;;;;;;;;6148684;23;20033;-60
2022/07/12 14:31:06;;;;;;;1.70;0.82;;;;;;;;;;6148871;23;20075;-60
2022/07/12 14:33:34;;;;;;;2.17;0.98;;;;;;;;;;6148855;23;20052;-62
2022/07/12 14:36:01;;;;;;;5.10;0.90;;;;;;;;;;6151536;23;20072;-49
2022/07/12 14:38:29;;;;;;;0.82;0.47;;;;;;;;;;6149749;23;20088;-60
2022/07/12 14:40:56;;;;;;;2.33;0.65;;;;;;;;;;6151053;23;20076;-60
2022/07/12 14:43:24;;;;;;;1.70;0.73;;;;;;;;;;6150260;23;20029;-60
2022/07/12 14:45:51;;;;;;;1.30;0.55;;;;;;;;;;6150623;23;20595;-59
2022/07/12 14:48:18;;;;;;;;;;;;;;;;;;6150818;23;20029;-59
2022/07/12 14:50:46;;;;;;;3.67;0.70;;;;;;;;;;6150026;23;19971;-59
2022/07/12 14:53:19;;;;;;;1.15;0.60;;;;;;;;;;6151134;23;20096;-58
2022/07/12 14:55:46;;;;;;;;;;;;;;;;;;6125320;23;20021;-61
2022/07/12 14:58:13;;;;;;;1.90;0.80;;;;;;;;;;6124287;23;19928;-61
2022/07/12 15:00:41;;;;;;;2.75;0.70;;;;;;;;;;6151874;23;20336;-61
2022/07/12 15:03:08;;;;;;;3.22;0.80;;;;;;;;;;6150732;23;20037;-61
2022/07/12 15:05:37;;;;;;;3.60;1.00;;;;;;;;;;6150936;23;20486;-62
2022/07/12 15:08:04;;;;;;;;;;;;;;;;;;6150750;23;20463;-62
2022/07/12 15:10:31;;;;;;;2.33;0.90;;;;;;;;;;6151165;23;19940;-61